sensor_id;sensor_type;location;lat;lon;timestamp;temperature;humidity
11047;DHT22;5576;50.008;10.596;2024-02-14T00:00:08;2.60;99.90
11047;DHT22;5576;50.008;10.596;2024-02-14T00:02:46;2.60;99.90
11047;DHT22;5576;50.008;10.596;2024-02-14T00:05:16;2.60;99.90
11047;DHT22;5576;50.008;10.596;2024-02-14T00:07:42;2.60;99.90
11047;DHT22;5576;50.008;10.596;2024-02-14T00:10:08;2.60;99.90
11047;DHT22;5576;50.008;10.596;2024-02-14T00:12:35;2.60;99.90
11047;DHT22;5576;50.008;10.596;2024-02-14T00:15:03;2.60;99.90
11047;DHT22;5576;50.008;10.596;2024-02-14T00:17:29;5.10;99.90
11047;DHT22;5576;50.008;10.596;2024-02-14T00:19:55;2.70;99.90
11047;DHT22;5576;50.008;10.596;2024-02-14T00:22:21;2.60;99.90
11047;DHT22;5576;50.008;10.596;2024-02-14T00:24:47;2.70;99.90
11047;DHT22;5576;50.008;10.596;2024-02-14T00:27:13;2.70;99.90
11047;DHT22;5576;50.008;10.596;2024-02-14T00:29:40;2.70;99.90
11047;DHT22;5576;50.008;10.596;2024-02-14T00:32:06;2.70;99.90
11047;DHT22;5576;50.008;10.596;2024-02-14T00:34:32;2.80;99.90
11047;DHT22;5576;50.008;10.596;2024-02-14T00:36:58;2.80;99.90
11047;DHT22;5576;50.008;10.596;2024-02-14T00:39:24;2.90;99.90
11047;DHT22;5576;50.008;10.596;2024-02-14T00:41:50;2.90;99.90
11047;DHT22;5576;50.008;10.596;2024-02-14T00:44:18;3.00;99.90
11047;DHT22;5576;50.008;10.596;2024-02-14T00:46:45;6.10;99.90
11047;DHT22;5576;50.008;10.596;2024-02-14T00:49:11;3.00;99.90
11047;DHT22;5576;50.008;10.596;2024-02-14T00:51:37;3.00;99.90
11047;DHT22;5576;50.008;10.596;2024-02-14T00:54:04;3.00;99.90
11047;DHT22;5576;50.008;10.596;2024-02-14T00:56:30;3.10;99.90
11047;DHT22;5576;50.008;10.596;2024-02-14T00:58:55;3.00;99.90
11047;DHT22;5576;50.008;10.596;2024-02-14T01:01:22;3.10;99.90
11047;DHT22;5576;50.008;10.596;2024-02-14T01:03:48;3.00;99.90
11047;DHT22;5576;50.008;10.596;2024-02-14T01:06:14;3.00;99.90
11047;DHT22;5576;50.008;10.596;2024-02-14T01:08:41;3.10;99.90
11047;DHT22;5576;50.008;10.596;2024-02-14T01:11:09;3.10;99.90
11047;DHT22;5576;50.008;10.596;2024-02-14T01:13:35;3.10;99.90
11047;DHT22;5576;50.008;10.596;2024-02-14T01:16:02;3.10;99.90
11047;DHT22;5576;50.008;10.596;2024-02-14T01:18:32;3.10;99.90
11047;DHT22;5576;50.008;10.596;2024-02-14T01:20:58;3.20;99.90
11047;DHT22;5576;50.008;10.596;2024-02-14T01:23:24;0.60;99.90
11047;DHT22;5576;50.008;10.596;2024-02-14T01:25:50;3.20;99.90
11047;DHT22;5576;50.008;10.596;2024-02-14T01:28:16;3.10;99.90
11047;DHT22;5576;50.008;10.596;2024-02-14T01:30:43;3.10;99.90
11047;DHT22;5576;50.008;10.596;2024-02-14T01:33:09;3.10;99.90
11047;DHT22;5576;50.008;10.596;2024-02-14T01:35:34;5.50;99.90
11047;DHT22;5576;50.008;10.596;2024-02-14T01:38:00;3.00;99.90
11047;DHT22;5576;50.008;10.596;2024-02-14T01:40:28;3.00;99.90
11047;DHT22;5576;50.008;10.596;2024-02-14T01:42:54;3.00;99.90
11047;DHT22;5576;50.008;10.596;2024-02-14T01:45:21;3.00;99.90
11047;DHT22;5576;50.008;10.596;2024-02-14T01:47:48;3.00;99.90
11047;DHT22;5576;50.008;10.596;2024-02-14T01:50:16;2.90;99.90
11047;DHT22;5576;50.008;10.596;2024-02-14T01:52:44;3.00;99.90
11047;DHT22;5576;50.008;10.596;2024-02-14T01:55:12;3.00;99.90
11047;DHT22;5576;50.008;10.596;2024-02-14T01:57:39;3.00;99.90
11047;DHT22;5576;50.008;10.596;2024-02-14T02:00:06;3.00;99.90
11047;DHT22;5576;50.008;10.596;2024-02-14T02:02:38;3.00;99.90
11047;DHT22;5576;50.008;10.596;2024-02-14T02:05:09;3.00;99.90
11047;DHT22;5576;50.008;10.596;2024-02-14T02:07:35;3.00;99.90
11047;DHT22;5576;50.008;10.596;2024-02-14T02:10:05;3.10;99.90
11047;DHT22;5576;50.008;10.596;2024-02-14T02:12:31;3.10;99.90
11047;DHT22;5576;50.008;10.596;2024-02-14T02:14:58;3.20;99.90
11047;DHT22;5576;50.008;10.596;2024-02-14T02:17:24;3.20;99.90
11047;DHT22;5576;50.008;10.596;2024-02-14T02:19:52;3.20;99.90
11047;DHT22;5576;50.008;10.596;2024-02-14T02:22:18;3.30;99.90
11047;DHT22;5576;50.008;10.596;2024-02-14T02:24:44;3.20;99.90
11047;DHT22;5576;50.008;10.596;2024-02-14T02:27:10;3.30;99.90
11047;DHT22;5576;50.008;10.596;2024-02-14T02:29:38;3.20;99.90
11047;DHT22;5576;50.008;10.596;2024-02-14T02:32:04;3.20;99.90
11047;DHT22;5576;50.008;10.596;2024-02-14T02:34:31;3.20;99.90
11047;DHT22;5576;50.008;10.596;2024-02-14T02:36:57;3.30;99.90
11047;DHT22;5576;50.008;10.596;2024-02-14T02:39:23;3.20;99.90
11047;DHT22;5576;50.008;10.596;2024-02-14T02:41:49;3.10;99.90
11047;DHT22;5576;50.008;10.596;2024-02-14T02:44:15;2.70;99.90
11047;DHT22;5576;50.008;10.596;2024-02-14T02:46:41;3.20;99.90
11047;DHT22;5576;50.008;10.596;2024-02-14T02:49:07;5.40;99.90
11047;DHT22;5576;50.008;10.596;2024-02-14T02:51:33;3.10;99.90
11047;DHT22;5576;50.008;10.596;2024-02-14T02:53:58;3.20;99.90
11047;DHT22;5576;50.008;10.596;2024-02-14T02:56:24;3.20;99.90
11047;DHT22;5576;50.008;10.596;2024-02-14T02:58:55;3.10;99.90
11047;DHT22;5576;50.008;10.596;2024-02-14T03:01:21;3.20;99.90
11047;DHT22;5576;50.008;10.596;2024-02-14T03:06:15;3.30;99.90
11047;DHT22;5576;50.008;10.596;2024-02-14T03:08:41;3.30;99.90
11047;DHT22;5576;50.008;10.596;2024-02-14T03:11:07;3.30;99.90
11047;DHT22;5576;50.008;10.596;2024-02-14T03:13:33;3.30;99.90
11047;DHT22;5576;50.008;10.596;2024-02-14T03:16:00;3.40;99.90
11047;DHT22;5576;50.008;10.596;2024-02-14T03:18:26;3.40;99.90
11047;DHT22;5576;50.008;10.596;2024-02-14T03:20:52;3.50;99.90
11047;DHT22;5576;50.008;10.596;2024-02-14T03:23:19;3.40;99.90
11047;DHT22;5576;50.008;10.596;2024-02-14T03:25:45;3.50;99.90
11047;DHT22;5576;50.008;10.596;2024-02-14T03:28:11;3.60;99.90
11047;DHT22;5576;50.008;10.596;2024-02-14T03:30:38;3.70;99.90
11047;DHT22;5576;50.008;10.596;2024-02-14T03:35:33;3.80;99.90
11047;DHT22;5576;50.008;10.596;2024-02-14T03:38:02;3.80;99.90
11047;DHT22;5576;50.008;10.596;2024-02-14T03:40:28;3.80;99.90
11047;DHT22;5576;50.008;10.596;2024-02-14T03:42:56;3.80;99.90
11047;DHT22;5576;50.008;10.596;2024-02-14T03:45:22;4.00;99.90
11047;DHT22;5576;50.008;10.596;2024-02-14T03:47:48;4.10;99.90
11047;DHT22;5576;50.008;10.596;2024-02-14T03:50:14;4.30;99.90
11047;DHT22;5576;50.008;10.596;2024-02-14T03:52:41;4.50;99.90
11047;DHT22;5576;50.008;10.596;2024-02-14T03:55:08;4.70;99.90
11047;DHT22;5576;50.008;10.596;2024-02-14T03:57:34;4.70;99.90
11047;DHT22;5576;50.008;10.596;2024-02-14T04:00:04;4.90;99.90
11047;DHT22;5576;50.008;10.596;2024-02-14T04:02:40;4.90;99.90
11047;DHT22;5576;50.008;10.596;2024-02-14T04:05:06;5.20;99.90
11047;DHT22;5576;50.008;10.596;2024-02-14T04:07:32;5.20;99.90
11047;DHT22;5576;50.008;10.596;2024-02-14T04:10:00;5.20;99.90
11047;DHT22;5576;50.008;10.596;2024-02-14T04:12:25;5.20;99.90
11047;DHT22;5576;50.008;10.596;2024-02-14T04:14:51;5.30;99.90
11047;DHT22;5576;50.008;10.596;2024-02-14T04:17:17;5.30;99.90
11047;DHT22;5576;50.008;10.596;2024-02-14T04:19:43;8.90;99.90
11047;DHT22;5576;50.008;10.596;2024-02-14T04:22:08;5.40;99.90
11047;DHT22;5576;50.008;10.596;2024-02-14T04:24:35;5.10;99.90
11047;DHT22;5576;50.008;10.596;2024-02-14T04:27:01;5.40;99.90
11047;DHT22;5576;50.008;10.596;2024-02-14T04:29:29;5.40;99.90
11047;DHT22;5576;50.008;10.596;2024-02-14T04:31:56;5.50;99.90
11047;DHT22;5576;50.008;10.596;2024-02-14T04:34:22;5.60;99.90
11047;DHT22;5576;50.008;10.596;2024-02-14T04:36:48;5.60;99.90
11047;DHT22;5576;50.008;10.596;2024-02-14T04:39:13;5.60;99.90
11047;DHT22;5576;50.008;10.596;2024-02-14T04:41:39;5.60;99.90
11047;DHT22;5576;50.008;10.596;2024-02-14T04:44:05;5.60;99.90
11047;DHT22;5576;50.008;10.596;2024-02-14T04:46:32;5.70;99.90
11047;DHT22;5576;50.008;10.596;2024-02-14T04:49:00;5.70;99.90
11047;DHT22;5576;50.008;10.596;2024-02-14T04:51:29;5.70;99.90
11047;DHT22;5576;50.008;10.596;2024-02-14T04:53:56;5.70;99.90
11047;DHT22;5576;50.008;10.596;2024-02-14T04:56:26;5.80;99.90
11047;DHT22;5576;50.008;10.596;2024-02-14T04:58:53;5.90;99.90
11047;DHT22;5576;50.008;10.596;2024-02-14T05:01:19;5.90;99.90
11047;DHT22;5576;50.008;10.596;2024-02-14T05:03:45;5.80;99.90
11047;DHT22;5576;50.008;10.596;2024-02-14T05:06:10;5.80;99.90
11047;DHT22;5576;50.008;10.596;2024-02-14T05:08:36;5.80;99.90
11047;DHT22;5576;50.008;10.596;2024-02-14T05:11:02;5.70;99.90
11047;DHT22;5576;50.008;10.596;2024-02-14T05:13:30;5.60;99.90
11047;DHT22;5576;50.008;10.596;2024-02-14T05:15:56;5.40;99.90
11047;DHT22;5576;50.008;10.596;2024-02-14T05:18:22;5.30;99.90
11047;DHT22;5576;50.008;10.596;2024-02-14T05:20:48;2.20;99.90
11047;DHT22;5576;50.008;10.596;2024-02-14T05:23:13;5.20;99.90
11047;DHT22;5576;50.008;10.596;2024-02-14T05:25:39;5.10;99.90
11047;DHT22;5576;50.008;10.596;2024-02-14T05:28:05;5.10;99.90
11047;DHT22;5576;50.008;10.596;2024-02-14T05:30:31;5.00;99.90
11047;DHT22;5576;50.008;10.596;2024-02-14T05:32:57;5.00;99.90
11047;DHT22;5576;50.008;10.596;2024-02-14T05:35:23;5.00;99.90
11047;DHT22;5576;50.008;10.596;2024-02-14T05:37:49;5.00;99.90
11047;DHT22;5576;50.008;10.596;2024-02-14T05:40:16;5.00;99.90
11047;DHT22;5576;50.008;10.596;2024-02-14T05:42:42;5.00;99.90
11047;DHT22;5576;50.008;10.596;2024-02-14T05:45:09;8.50;99.90
11047;DHT22;5576;50.008;10.596;2024-02-14T05:47:35;5.10;99.90
11047;DHT22;5576;50.008;10.596;2024-02-14T05:50:01;5.20;99.90
11047;DHT22;5576;50.008;10.596;2024-02-14T05:52:27;5.40;99.90
11047;DHT22;5576;50.008;10.596;2024-02-14T05:54:53;5.60;99.90
11047;DHT22;5576;50.008;10.596;2024-02-14T05:57:19;5.70;99.90
11047;DHT22;5576;50.008;10.596;2024-02-14T05:59:45;5.70;99.90
11047;DHT22;5576;50.008;10.596;2024-02-14T06:02:11;5.70;99.90
11047;DHT22;5576;50.008;10.596;2024-02-14T06:04:37;5.80;99.90
11047;DHT22;5576;50.008;10.596;2024-02-14T06:07:03;5.80;99.90
11047;DHT22;5576;50.008;10.596;2024-02-14T06:09:31;8.80;99.90
11047;DHT22;5576;50.008;10.596;2024-02-14T06:11:56;5.80;99.90
11047;DHT22;5576;50.008;10.596;2024-02-14T06:14:23;5.80;99.90
11047;DHT22;5576;50.008;10.596;2024-02-14T06:16:48;5.80;99.90
11047;DHT22;5576;50.008;10.596;2024-02-14T06:19:14;5.80;99.90
11047;DHT22;5576;50.008;10.596;2024-02-14T06:21:40;5.80;99.90
11047;DHT22;5576;50.008;10.596;2024-02-14T06:24:06;5.70;99.90
11047;DHT22;5576;50.008;10.596;2024-02-14T06:26:32;5.70;99.90
11047;DHT22;5576;50.008;10.596;2024-02-14T06:28:58;5.70;99.90
11047;DHT22;5576;50.008;10.596;2024-02-14T06:31:24;5.70;99.90
11047;DHT22;5576;50.008;10.596;2024-02-14T06:33:50;5.80;99.90
11047;DHT22;5576;50.008;10.596;2024-02-14T06:36:16;5.70;99.90
11047;DHT22;5576;50.008;10.596;2024-02-14T06:38:41;5.80;99.90
11047;DHT22;5576;50.008;10.596;2024-02-14T06:41:07;5.80;99.90
11047;DHT22;5576;50.008;10.596;2024-02-14T06:43:33;5.90;99.90
11047;DHT22;5576;50.008;10.596;2024-02-14T06:45:58;6.10;99.90
11047;DHT22;5576;50.008;10.596;2024-02-14T06:48:24;6.10;99.90
11047;DHT22;5576;50.008;10.596;2024-02-14T06:50:50;6.10;99.90
11047;DHT22;5576;50.008;10.596;2024-02-14T06:53:17;6.10;99.90
11047;DHT22;5576;50.008;10.596;2024-02-14T06:55:43;6.00;99.90
11047;DHT22;5576;50.008;10.596;2024-02-14T06:58:08;6.00;99.90
11047;DHT22;5576;50.008;10.596;2024-02-14T07:00:34;5.90;99.90
11047;DHT22;5576;50.008;10.596;2024-02-14T07:03:00;5.80;99.90
11047;DHT22;5576;50.008;10.596;2024-02-14T07:05:26;5.80;99.90
11047;DHT22;5576;50.008;10.596;2024-02-14T07:07:53;5.80;99.90
11047;DHT22;5576;50.008;10.596;2024-02-14T07:10:19;5.90;99.90
11047;DHT22;5576;50.008;10.596;2024-02-14T07:12:44;5.90;99.90
11047;DHT22;5576;50.008;10.596;2024-02-14T07:15:10;5.70;99.90
11047;DHT22;5576;50.008;10.596;2024-02-14T07:17:36;5.70;99.90
11047;DHT22;5576;50.008;10.596;2024-02-14T07:20:04;5.60;99.90
11047;DHT22;5576;50.008;10.596;2024-02-14T07:22:30;5.70;99.90
11047;DHT22;5576;50.008;10.596;2024-02-14T07:24:56;5.60;99.90
11047;DHT22;5576;50.008;10.596;2024-02-14T07:27:22;5.60;99.90
11047;DHT22;5576;50.008;10.596;2024-02-14T07:29:49;3.20;99.90
11047;DHT22;5576;50.008;10.596;2024-02-14T07:32:15;9.00;99.90
11047;DHT22;5576;50.008;10.596;2024-02-14T07:34:42;4.10;99.90
11047;DHT22;5576;50.008;10.596;2024-02-14T07:37:09;5.50;99.90
11047;DHT22;5576;50.008;10.596;2024-02-14T07:39:35;5.50;99.90
11047;DHT22;5576;50.008;10.596;2024-02-14T07:42:02;5.50;99.90
11047;DHT22;5576;50.008;10.596;2024-02-14T07:44:28;5.60;99.90
11047;DHT22;5576;50.008;10.596;2024-02-14T07:46:54;5.60;99.90
11047;DHT22;5576;50.008;10.596;2024-02-14T07:49:20;5.60;99.90
11047;DHT22;5576;50.008;10.596;2024-02-14T07:51:46;5.60;99.90
11047;DHT22;5576;50.008;10.596;2024-02-14T07:54:12;5.70;99.90
11047;DHT22;5576;50.008;10.596;2024-02-14T07:56:37;5.60;99.90
11047;DHT22;5576;50.008;10.596;2024-02-14T07:59:03;5.70;99.90
11047;DHT22;5576;50.008;10.596;2024-02-14T08:01:31;2.90;99.90
11047;DHT22;5576;50.008;10.596;2024-02-14T08:03:58;5.90;99.90
11047;DHT22;5576;50.008;10.596;2024-02-14T08:06:24;5.90;99.90
11047;DHT22;5576;50.008;10.596;2024-02-14T08:08:50;5.90;99.90
11047;DHT22;5576;50.008;10.596;2024-02-14T08:11:19;6.10;99.90
11047;DHT22;5576;50.008;10.596;2024-02-14T08:13:45;6.10;99.90
11047;DHT22;5576;50.008;10.596;2024-02-14T08:16:11;6.10;99.90
11047;DHT22;5576;50.008;10.596;2024-02-14T08:18:38;6.20;99.90
11047;DHT22;5576;50.008;10.596;2024-02-14T08:21:06;6.30;99.90
11047;DHT22;5576;50.008;10.596;2024-02-14T08:23:32;6.40;99.90
11047;DHT22;5576;50.008;10.596;2024-02-14T08:25:58;6.40;99.90
11047;DHT22;5576;50.008;10.596;2024-02-14T08:28:24;6.40;99.90
11047;DHT22;5576;50.008;10.596;2024-02-14T08:30:50;6.40;99.90
11047;DHT22;5576;50.008;10.596;2024-02-14T08:33:16;8.20;99.90
11047;DHT22;5576;50.008;10.596;2024-02-14T08:35:42;6.40;99.90
11047;DHT22;5576;50.008;10.596;2024-02-14T08:38:08;6.50;99.90
11047;DHT22;5576;50.008;10.596;2024-02-14T08:40:35;6.50;99.90
11047;DHT22;5576;50.008;10.596;2024-02-14T08:43:01;6.60;99.90
11047;DHT22;5576;50.008;10.596;2024-02-14T08:45:27;4.40;99.90
11047;DHT22;5576;50.008;10.596;2024-02-14T08:47:55;6.70;99.90
11047;DHT22;5576;50.008;10.596;2024-02-14T08:50:21;6.70;99.90
11047;DHT22;5576;50.008;10.596;2024-02-14T08:52:47;6.80;99.90
11047;DHT22;5576;50.008;10.596;2024-02-14T08:55:13;6.80;99.90
11047;DHT22;5576;50.008;10.596;2024-02-14T08:57:43;6.90;99.90
11047;DHT22;5576;50.008;10.596;2024-02-14T09:00:11;6.80;99.90
11047;DHT22;5576;50.008;10.596;2024-02-14T09:02:40;6.90;99.90
11047;DHT22;5576;50.008;10.596;2024-02-14T09:05:06;7.00;99.90
11047;DHT22;5576;50.008;10.596;2024-02-14T09:07:32;7.00;99.90
11047;DHT22;5576;50.008;10.596;2024-02-14T09:10:02;7.10;99.90
11047;DHT22;5576;50.008;10.596;2024-02-14T09:12:31;7.10;99.90
11047;DHT22;5576;50.008;10.596;2024-02-14T09:14:57;7.30;99.90
11047;DHT22;5576;50.008;10.596;2024-02-14T09:17:23;7.30;99.90
11047;DHT22;5576;50.008;10.596;2024-02-14T09:19:49;7.40;99.90
11047;DHT22;5576;50.008;10.596;2024-02-14T09:22:17;7.50;99.90
11047;DHT22;5576;50.008;10.596;2024-02-14T09:24:47;7.60;99.90
11047;DHT22;5576;50.008;10.596;2024-02-14T09:27:14;7.60;99.90
11047;DHT22;5576;50.008;10.596;2024-02-14T09:29:40;7.70;99.90
11047;DHT22;5576;50.008;10.596;2024-02-14T09:32:06;7.80;99.90
11047;DHT22;5576;50.008;10.596;2024-02-14T09:34:32;7.80;99.90
11047;DHT22;5576;50.008;10.596;2024-02-14T09:36:58;7.80;99.90
11047;DHT22;5576;50.008;10.596;2024-02-14T09:39:25;10.60;99.90
11047;DHT22;5576;50.008;10.596;2024-02-14T09:41:54;7.80;99.90
11047;DHT22;5576;50.008;10.596;2024-02-14T09:44:27;7.90;99.90
11047;DHT22;5576;50.008;10.596;2024-02-14T09:46:55;10.00;99.90
11047;DHT22;5576;50.008;10.596;2024-02-14T09:49:21;8.00;99.90
11047;DHT22;5576;50.008;10.596;2024-02-14T09:51:48;8.10;99.90
11047;DHT22;5576;50.008;10.596;2024-02-14T09:54:17;8.20;99.90
11047;DHT22;5576;50.008;10.596;2024-02-14T09:56:48;8.20;99.90
11047;DHT22;5576;50.008;10.596;2024-02-14T09:59:16;8.20;99.90
11047;DHT22;5576;50.008;10.596;2024-02-14T10:01:43;8.30;99.90
11047;DHT22;5576;50.008;10.596;2024-02-14T10:04:09;8.30;99.90
11047;DHT22;5576;50.008;10.596;2024-02-14T10:06:35;11.10;99.90
11047;DHT22;5576;50.008;10.596;2024-02-14T10:09:02;8.20;99.90
11047;DHT22;5576;50.008;10.596;2024-02-14T10:11:28;8.20;99.90
11047;DHT22;5576;50.008;10.596;2024-02-14T10:13:55;8.30;99.90
11047;DHT22;5576;50.008;10.596;2024-02-14T10:16:26;8.30;99.90
11047;DHT22;5576;50.008;10.596;2024-02-14T10:18:52;8.30;99.90
11047;DHT22;5576;50.008;10.596;2024-02-14T10:21:17;8.30;99.90
11047;DHT22;5576;50.008;10.596;2024-02-14T10:23:45;8.40;99.90
11047;DHT22;5576;50.008;10.596;2024-02-14T10:26:13;8.20;99.90
11047;DHT22;5576;50.008;10.596;2024-02-14T10:28:42;8.40;99.90
11047;DHT22;5576;50.008;10.596;2024-02-14T10:31:09;8.30;99.90
11047;DHT22;5576;50.008;10.596;2024-02-14T10:33:35;7.60;99.90
11047;DHT22;5576;50.008;10.596;2024-02-14T10:36:01;8.40;99.90
11047;DHT22;5576;50.008;10.596;2024-02-14T10:38:31;8.50;99.90
11047;DHT22;5576;50.008;10.596;2024-02-14T10:40:59;8.40;99.90
11047;DHT22;5576;50.008;10.596;2024-02-14T10:43:26;8.50;99.90
11047;DHT22;5576;50.008;10.596;2024-02-14T10:45:53;8.50;99.90
11047;DHT22;5576;50.008;10.596;2024-02-14T10:48:22;8.50;99.90
11047;DHT22;5576;50.008;10.596;2024-02-14T10:50:52;8.60;99.90
11047;DHT22;5576;50.008;10.596;2024-02-14T10:53:19;8.60;99.90
11047;DHT22;5576;50.008;10.596;2024-02-14T10:55:48;8.60;99.90
11047;DHT22;5576;50.008;10.596;2024-02-14T10:58:16;8.70;99.90
11047;DHT22;5576;50.008;10.596;2024-02-14T11:00:43;6.70;99.90
11047;DHT22;5576;50.008;10.596;2024-02-14T11:03:09;8.80;99.90
11047;DHT22;5576;50.008;10.596;2024-02-14T11:05:45;8.30;99.90
11047;DHT22;5576;50.008;10.596;2024-02-14T11:08:14;8.90;99.90
11047;DHT22;5576;50.008;10.596;2024-02-14T11:10:40;8.90;99.90
11047;DHT22;5576;50.008;10.596;2024-02-14T11:13:12;8.90;99.90
11047;DHT22;5576;50.008;10.596;2024-02-14T11:15:40;8.90;99.90
11047;DHT22;5576;50.008;10.596;2024-02-14T11:18:06;9.00;99.90
11047;DHT22;5576;50.008;10.596;2024-02-14T11:20:36;12.20;99.90
11047;DHT22;5576;50.008;10.596;2024-02-14T11:23:03;9.00;99.90
11047;DHT22;5576;50.008;10.596;2024-02-14T11:25:32;9.00;99.90
11047;DHT22;5576;50.008;10.596;2024-02-14T11:28:00;9.60;99.90
11047;DHT22;5576;50.008;10.596;2024-02-14T11:30:30;5.60;99.90
11047;DHT22;5576;50.008;10.596;2024-02-14T11:33:10;9.10;99.90
11047;DHT22;5576;50.008;10.596;2024-02-14T11:35:40;9.10;99.90
11047;DHT22;5576;50.008;10.596;2024-02-14T11:42:59;9.10;99.90
11047;DHT22;5576;50.008;10.596;2024-02-14T11:45:25;9.20;99.90
11047;DHT22;5576;50.008;10.596;2024-02-14T11:50:18;6.80;99.90
11047;DHT22;5576;50.008;10.596;2024-02-14T11:52:44;9.20;99.90
11047;DHT22;5576;50.008;10.596;2024-02-14T11:55:10;9.20;99.90
11047;DHT22;5576;50.008;10.596;2024-02-14T12:00:04;9.30;99.90
11047;DHT22;5576;50.008;10.596;2024-02-14T12:05:02;9.30;99.90
11047;DHT22;5576;50.008;10.596;2024-02-14T12:07:30;9.30;99.90
11047;DHT22;5576;50.008;10.596;2024-02-14T12:09:56;9.40;99.90
11047;DHT22;5576;50.008;10.596;2024-02-14T12:14:52;9.30;99.90
11047;DHT22;5576;50.008;10.596;2024-02-14T12:17:18;9.40;99.90
11047;DHT22;5576;50.008;10.596;2024-02-14T12:19:44;8.50;99.90
11047;DHT22;5576;50.008;10.596;2024-02-14T12:24:44;9.40;99.90
11047;DHT22;5576;50.008;10.596;2024-02-14T12:27:10;9.30;99.90
11047;DHT22;5576;50.008;10.596;2024-02-14T12:29:36;9.40;99.90
11047;DHT22;5576;50.008;10.596;2024-02-14T12:32:04;9.40;99.90
11047;DHT22;5576;50.008;10.596;2024-02-14T12:34:32;9.40;99.90
11047;DHT22;5576;50.008;10.596;2024-02-14T12:36:58;9.40;99.90
11047;DHT22;5576;50.008;10.596;2024-02-14T12:39:26;9.50;99.90
11047;DHT22;5576;50.008;10.596;2024-02-14T12:44:18;12.90;99.90
11047;DHT22;5576;50.008;10.596;2024-02-14T12:46:44;9.50;99.90
11047;DHT22;5576;50.008;10.596;2024-02-14T12:49:10;10.60;99.90
11047;DHT22;5576;50.008;10.596;2024-02-14T12:54:04;9.60;99.90
11047;DHT22;5576;50.008;10.596;2024-02-14T12:56:31;9.70;99.90
11047;DHT22;5576;50.008;10.596;2024-02-14T12:58:57;9.70;99.90
11047;DHT22;5576;50.008;10.596;2024-02-14T13:01:25;9.80;99.90
11047;DHT22;5576;50.008;10.596;2024-02-14T13:06:16;12.00;99.90
11047;DHT22;5576;50.008;10.596;2024-02-14T13:08:42;9.80;99.90
11047;DHT22;5576;50.008;10.596;2024-02-14T13:11:08;10.70;99.90
11047;DHT22;5576;50.008;10.596;2024-02-14T13:16:01;9.70;99.90
11047;DHT22;5576;50.008;10.596;2024-02-14T13:18:27;9.70;99.90
11047;DHT22;5576;50.008;10.596;2024-02-14T13:20:53;9.60;99.90
11047;DHT22;5576;50.008;10.596;2024-02-14T13:23:25;9.70;99.90
11047;DHT22;5576;50.008;10.596;2024-02-14T13:30:44;6.30;99.90
11047;DHT22;5576;50.008;10.596;2024-02-14T13:33:13;9.70;99.90
11047;DHT22;5576;50.008;10.596;2024-02-14T13:35:39;9.70;99.90
11047;DHT22;5576;50.008;10.596;2024-02-14T13:38:05;9.40;99.90
11047;DHT22;5576;50.008;10.596;2024-02-14T13:40:31;9.80;99.90
11047;DHT22;5576;50.008;10.596;2024-02-14T13:45:24;9.70;99.90
11047;DHT22;5576;50.008;10.596;2024-02-14T13:47:50;9.70;99.90
11047;DHT22;5576;50.008;10.596;2024-02-14T13:50:16;9.70;99.90
11047;DHT22;5576;50.008;10.596;2024-02-14T13:52:42;8.50;99.90
11047;DHT22;5576;50.008;10.596;2024-02-14T13:55:08;9.80;99.90
11047;DHT22;5576;50.008;10.596;2024-02-14T14:05:08;10.00;99.90
11047;DHT22;5576;50.008;10.596;2024-02-14T14:07:37;10.00;99.90
11047;DHT22;5576;50.008;10.596;2024-02-14T14:10:05;10.10;99.90
11047;DHT22;5576;50.008;10.596;2024-02-14T14:12:32;9.20;99.90
11047;DHT22;5576;50.008;10.596;2024-02-14T14:14:58;10.00;99.90
11047;DHT22;5576;50.008;10.596;2024-02-14T14:22:16;8.30;99.90
11047;DHT22;5576;50.008;10.596;2024-02-14T14:29:39;10.00;99.90
11047;DHT22;5576;50.008;10.596;2024-02-14T14:32:07;10.00;99.90
11047;DHT22;5576;50.008;10.596;2024-02-14T14:37:00;10.00;99.90
11047;DHT22;5576;50.008;10.596;2024-02-14T14:41:52;10.90;99.90
11047;DHT22;5576;50.008;10.596;2024-02-14T14:46:49;10.00;99.90
11047;DHT22;5576;50.008;10.596;2024-02-14T14:49:16;10.00;99.90
11047;DHT22;5576;50.008;10.596;2024-02-14T14:51:42;9.60;99.90
11047;DHT22;5576;50.008;10.596;2024-02-14T15:03:56;12.90;99.90
11047;DHT22;5576;50.008;10.596;2024-02-14T15:06:22;13.10;99.90
11047;DHT22;5576;50.008;10.596;2024-02-14T15:08:48;10.10;99.90
11047;DHT22;5576;50.008;10.596;2024-02-14T15:11:14;10.10;99.90
11047;DHT22;5576;50.008;10.596;2024-02-14T15:21:02;10.00;99.90
11047;DHT22;5576;50.008;10.596;2024-02-14T15:23:29;10.00;99.90
11047;DHT22;5576;50.008;10.596;2024-02-14T15:25:55;9.90;99.90
11047;DHT22;5576;50.008;10.596;2024-02-14T15:28:29;12.40;99.90
11047;DHT22;5576;50.008;10.596;2024-02-14T15:33:42;8.00;99.90
11047;DHT22;5576;50.008;10.596;2024-02-14T15:36:09;8.60;99.90
11047;DHT22;5576;50.008;10.596;2024-02-14T15:38:35;10.00;99.90
11047;DHT22;5576;50.008;10.596;2024-02-14T15:41:01;10.00;99.90
11047;DHT22;5576;50.008;10.596;2024-02-14T15:43:29;8.10;99.90
11047;DHT22;5576;50.008;10.596;2024-02-14T15:45:55;10.00;99.90
11047;DHT22;5576;50.008;10.596;2024-02-14T15:48:21;10.00;99.90
11047;DHT22;5576;50.008;10.596;2024-02-14T15:50:47;10.00;99.90
11047;DHT22;5576;50.008;10.596;2024-02-14T15:53:13;11.40;99.90
11047;DHT22;5576;50.008;10.596;2024-02-14T15:55:39;9.90;99.90
11047;DHT22;5576;50.008;10.596;2024-02-14T15:58:06;9.90;99.90
11047;DHT22;5576;50.008;10.596;2024-02-14T16:02:59;9.90;99.90
11047;DHT22;5576;50.008;10.596;2024-02-14T16:05:25;8.90;99.90
11047;DHT22;5576;50.008;10.596;2024-02-14T16:07:52;9.80;99.90
11047;DHT22;5576;50.008;10.596;2024-02-14T16:10:18;9.80;99.90
11047;DHT22;5576;50.008;10.596;2024-02-14T16:12:45;9.70;99.90
11047;DHT22;5576;50.008;10.596;2024-02-14T16:15:12;9.70;99.90
11047;DHT22;5576;50.008;10.596;2024-02-14T16:17:39;9.70;99.90
11047;DHT22;5576;50.008;10.596;2024-02-14T16:20:08;9.70;99.90
11047;DHT22;5576;50.008;10.596;2024-02-14T16:22:34;10.10;99.90
11047;DHT22;5576;50.008;10.596;2024-02-14T16:25:01;9.60;99.90
11047;DHT22;5576;50.008;10.596;2024-02-14T16:27:27;9.60;99.90
11047;DHT22;5576;50.008;10.596;2024-02-14T16:29:52;9.60;99.90
11047;DHT22;5576;50.008;10.596;2024-02-14T16:32:18;9.60;99.90
11047;DHT22;5576;50.008;10.596;2024-02-14T16:34:44;9.50;99.90
11047;DHT22;5576;50.008;10.596;2024-02-14T16:37:14;9.60;99.90
11047;DHT22;5576;50.008;10.596;2024-02-14T16:39:44;9.50;99.90
11047;DHT22;5576;50.008;10.596;2024-02-14T16:42:10;9.50;99.90
11047;DHT22;5576;50.008;10.596;2024-02-14T16:44:35;9.50;99.90
11047;DHT22;5576;50.008;10.596;2024-02-14T16:47:03;9.50;99.90
11047;DHT22;5576;50.008;10.596;2024-02-14T16:49:28;9.50;99.90
11047;DHT22;5576;50.008;10.596;2024-02-14T16:51:54;9.50;99.90
11047;DHT22;5576;50.008;10.596;2024-02-14T16:54:20;9.60;99.90
11047;DHT22;5576;50.008;10.596;2024-02-14T16:56:48;9.60;99.90
11047;DHT22;5576;50.008;10.596;2024-02-14T16:59:13;9.50;99.90
11047;DHT22;5576;50.008;10.596;2024-02-14T17:01:39;9.50;99.90
11047;DHT22;5576;50.008;10.596;2024-02-14T17:04:05;9.50;99.90
11047;DHT22;5576;50.008;10.596;2024-02-14T17:06:31;6.60;99.90